Time;durP1;ratioP1;P1;durP2;ratioP2;P2;SDS_P1;SDS_P2;PMS_P1;PMS_P2;Temp;Humidity;BMP_temperature;BMP_pressure;BME280_temperature;BME280_humidity;BME280_pressure;Samples;Min_cycle;Max_cycle;Signal;HPM_P1;HPM_P2
2021/04/21 00:01:27;;;;;;;18.45;12.40;;;;;;;9.86;62.44;99573.94;5011851;28;20390;-38
2021/04/21 00:03:53;;;;;;;20.50;12.23;;;;;;;10.00;61.59;99576.59;5012266;28;20029;-38
2021/04/21 00:06:18;;;;;;;20.23;13.50;;;;;;;10.09;61.12;99578.84;5014093;28;20025;-38
2021/04/21 00:08:44;;;;;;;20.95;13.20;;;;;;;10.10;60.75;99577.81;5030144;28;20692;-38
2021/04/21 00:11:09;;;;;;;19.88;13.07;;;;;;;10.22;60.61;99575.34;5031348;28;20029;-38
2021/04/21 00:13:35;;;;;;;22.25;12.63;;;;;;;10.10;60.52;99583.13;5031071;28;20025;-38
2021/04/21 00:16:01;;;;;;;19.67;13.00;;;;;;;9.94;61.05;99575.56;5029796;28;20032;-38
2021/04/21 00:18:26;;;;;;;21.77;12.77;;;;;;;9.97;60.51;99575.97;5029562;28;20022;-38
2021/04/21 00:20:57;;;;;;;20.73;13.35;;;;;;;9.94;60.94;99572.91;5012121;28;20037;-37
2021/04/21 00:23:23;;;;;;;20.65;12.63;;;;;;;9.90;60.37;99572.50;4993897;28;20550;-38
2021/04/21 00:25:50;;;;;;;22.27;12.50;;;;;;;9.86;60.35;99575.75;5022778;28;20033;-38
2021/04/21 00:28:16;;;;;;;20.00;12.73;;;;;;;9.99;59.46;99570.44;5029969;28;20037;-38
2021/04/21 00:30:43;;;;;;;20.38;12.82;;;;;;;9.99;59.95;99573.09;5029778;28;20026;-38
2021/04/21 00:33:08;;;;;;;20.90;13.07;;;;;;;9.92;60.41;99575.78;5030141;28;20394;-38
2021/04/21 00:35:39;;;;;;;19.50;12.20;;;;;;;9.84;60.23;99583.13;5013362;28;20140;-37
2021/04/21 00:38:08;;;;;;;21.65;13.05;;;;;;;9.76;60.12;99574.31;5030701;28;20022;-37
2021/04/21 00:40:39;;;;;;;20.88;13.27;;;;;;;9.74;60.60;99575.53;5030828;28;20108;-37
2021/04/21 00:43:43;;;;;;;19.02;12.60;;;;;;;9.64;60.63;99577.78;5029355;28;20028;-46
2021/04/21 00:46:23;;;;;;;18.92;12.32;;;;;;;9.61;61.13;99586.94;5028339;28;20041;-38
2021/04/21 00:49:01;;;;;;;21.10;13.02;;;;;;;9.43;61.59;99586.72;5028487;28;20025;-38
2021/04/21 00:51:30;;;;;;;21.60;12.75;;;;;;;9.18;61.51;99584.59;5030227;28;20068;-37
2021/04/21 00:54:36;;;;;;;19.63;12.57;;;;;;;9.22;61.95;99588.47;5029172;28;20110;-37
2021/04/21 00:57:10;;;;;;;22.27;13.02;;;;;;;9.31;61.26;99592.59;5028956;28;20235;-37
2021/04/21 01:00:10;;;;;;;20.45;13.20;;;;;;;9.18;61.84;99592.56;5030437;28;20037;-37
2021/04/21 01:02:37;;;;;;;20.58;13.23;;;;;;;9.21;61.64;99592.13;5030488;28;20093;-37
2021/04/21 01:05:24;;;;;;;20.42;12.63;;;;;;;9.34;61.22;99600.16;5029025;28;20025;-37
2021/04/21 01:07:50;;;;;;;19.05;12.10;;;;;;;9.13;62.01;99584.34;5030359;28;20115;-38
2021/04/21 01:10:16;;;;;;;20.60;12.60;;;;;;;9.17;62.12;99594.38;5029125;28;20057;-37
2021/04/21 01:12:43;;;;;;;19.48;12.40;;;;;;;9.22;62.49;99585.81;5030290;28;20394;-37
2021/04/21 01:15:10;;;;;;;20.48;12.95;;;;;;;9.09;62.54;99585.75;5028517;28;20087;-38
2021/04/21 01:17:37;;;;;;;20.45;12.40;;;;;;;9.03;62.98;99591.88;5009313;28;20045;-37
2021/04/21 01:20:18;;;;;;;22.23;13.43;;;;;;;9.13;62.56;99595.78;5009243;28;20029;-38
2021/04/21 01:22:48;;;;;;;21.67;13.63;;;;;;;9.12;62.87;99596.81;5024883;28;20466;-37
2021/04/21 01:25:36;;;;;;;20.55;13.30;;;;;;;9.10;62.97;99596.19;5050775;28;20446;-39
2021/04/21 01:28:03;;;;;;;22.88;13.05;;;;;;;8.86;63.66;99596.69;5029050;28;20025;-37
2021/04/21 01:30:30;;;;;;;22.02;13.30;;;;;;;9.10;63.25;99598.00;5028732;28;20034;-37
2021/04/21 01:32:58;;;;;;;19.73;12.80;;;;;;;8.99;63.43;99600.22;5012123;28;20478;-37
2021/04/21 01:35:24;;;;;;;27.33;13.85;;;;;;;8.99;62.90;99604.72;5011983;28;20103;-38
2021/04/21 01:37:49;;;;;;;24.05;13.75;;;;;;;8.78;64.02;99602.97;5028470;28;20465;-38
2021/04/21 01:40:32;;;;;;;22.25;14.00;;;;;;;8.71;64.08;99605.56;5028521;28;20641;-38
2021/04/21 01:43:02;;;;;;;20.75;13.82;;;;;;;8.75;64.09;99606.00;5029876;28;20129;-38
2021/04/21 01:45:28;;;;;;;22.75;13.48;;;;;;;8.46;64.34;99596.44;5028663;28;20034;-38
2021/04/21 01:47:57;;;;;;;21.92;13.60;;;;;;;8.47;64.68;99590.91;5028811;28;20402;-38
2021/04/21 01:50:22;;;;;;;24.10;13.57;;;;;;;8.39;65.15;99599.78;5028820;28;20071;-38
2021/04/21 01:53:11;;;;;;;21.90;13.55;;;;;;;8.33;65.48;99599.75;5030006;28;20021;-38
2021/04/21 01:55:41;;;;;;;23.17;14.15;;;;;;;8.26;66.36;99597.03;5028734;28;20028;-37
2021/04/21 01:58:30;;;;;;;23.35;14.93;;;;;;;8.31;65.74;99602.59;5012446;28;20091;-37
2021/04/21 02:01:05;;;;;;;25.52;14.95;;;;;;;8.12;66.43;99601.41;5022668;28;20041;-37
2021/04/21 02:03:39;;;;;;;23.50;14.10;;;;;;;8.11;66.50;99604.25;5016606;28;20025;-38
2021/04/21 02:06:43;;;;;;;24.20;14.73;;;;;;;8.25;66.33;99607.88;5033674;28;20021;-38
2021/04/21 02:09:23;;;;;;;23.23;13.70;;;;;;;8.19;65.94;99614.75;5033357;28;20065;-38
2021/04/21 02:11:52;;;;;;;;;;;;;;;8.22;66.10;99615.19;5034176;28;20037;-38
2021/04/21 02:14:43;;;;;;;24.73;14.48;;;;;;;8.29;65.47;99609.13;5032410;28;19909;-38
2021/04/21 02:17:16;;;;;;;22.88;13.80;;;;;;;8.30;65.56;99611.56;5030769;28;20098;-37
2021/04/21 02:19:52;;;;;;;23.98;13.77;;;;;;;8.17;65.61;99603.50;5032274;28;20128;-38
2021/04/21 02:22:38;;;;;;;21.73;12.85;;;;;;;8.26;65.43;99605.00;5032251;28;20131;-38
2021/04/21 02:25:36;;;;;;;21.98;13.15;;;;;;;8.21;65.43;99612.72;5032300;28;20029;-38
2021/04/21 02:28:20;;;;;;;22.02;13.63;;;;;;;7.96;66.44;99607.81;5032220;28;20175;-38
2021/04/21 02:30:59;;;;;;;22.02;13.65;;;;;;;7.97;66.70;99605.97;5033223;28;20037;-38
2021/04/21 02:33:38;;;;;;;23.40;13.57;;;;;;;8.00;67.19;99614.38;5032303;28;20025;-38
2021/04/21 02:36:08;;;;;;;21.80;14.00;;;;;;;8.18;66.19;99605.13;5031986;28;20132;-38
2021/04/21 02:38:40;;;;;;;21.17;13.35;;;;;;;8.06;66.32;99612.78;5031892;28;20038;-38
2021/04/21 02:41:13;;;;;;;20.00;12.65;;;;;;;8.30;65.34;99610.72;5033270;28;20129;-38
2021/04/21 02:43:57;;;;;;;22.30;13.75;;;;;;;8.22;65.70;99607.22;5031802;28;20112;-38
2021/04/21 02:46:46;;;;;;;26.13;13.05;;;;;;;8.11;65.34;99614.84;5032856;28;20107;-38
2021/04/21 02:49:21;;;;;;;23.20;14.13;;;;;;;7.98;67.20;99613.75;5033219;28;20043;-38
2021/04/21 02:52:06;;;;;;;26.95;14.60;;;;;;;8.00;67.36;99619.66;5032902;28;20026;-38
2021/04/21 02:54:43;;;;;;;22.40;13.05;;;;;;;7.91;67.92;99618.16;5032663;28;20037;-38
2021/04/21 02:57:13;;;;;;;23.77;14.68;;;;;;;7.97;66.83;99629.81;5031059;28;20123;-39
2021/04/21 02:59:52;;;;;;;24.77;14.35;;;;;;;7.94;67.66;99619.59;5031722;28;20094;-39
2021/04/21 03:02:21;;;;;;;24.20;14.15;;;;;;;7.91;67.49;99625.28;5016419;28;20017;-38
2021/04/21 03:04:47;;;;;;;;;;;;;;;7.73;67.88;99617.75;5032493;28;20025;-38
2021/04/21 03:07:25;;;;;;;34.22;20.88;;;;;;;7.69;68.35;99627.94;5033277;28;19909;-39
2021/04/21 03:09:54;;;;;;;70.72;37.80;;;;;;;7.56;68.84;99617.19;5031620;28;20061;-39
2021/04/21 03:12:23;;;;;;;82.32;41.75;;;;;;;7.52;69.25;99627.34;5014644;28;20452;-37
2021/04/21 03:14:49;;;;;;;;;;;;;;;7.59;68.82;99627.38;5015835;28;20034;-37
2021/04/21 03:17:15;;;;;;;27.85;15.50;;;;;;;7.60;67.93;99627.22;5031800;28;19909;-37
2021/04/21 03:19:45;;;;;;;23.92;13.68;;;;;;;7.46;68.54;99620.09;5032424;28;20033;-38
2021/04/21 03:22:14;;;;;;;24.40;13.32;;;;;;;7.46;68.87;99622.75;5033084;28;20022;-37
2021/04/21 03:25:02;;;;;;;26.10;14.80;;;;;;;7.40;69.52;99628.81;5031757;28;20017;-37
2021/04/21 03:27:30;;;;;;;27.77;14.60;;;;;;;7.46;69.25;99627.25;5015984;28;20053;-37
2021/04/21 03:29:56;;;;;;;36.08;21.80;;;;;;;7.60;69.03;99634.34;5032594;28;20049;-38
2021/04/21 03:32:26;;;;;;;52.28;28.65;;;;;;;7.66;67.95;99633.59;5031120;28;20117;-38
2021/04/21 03:34:52;;;;;;;34.97;17.88;;;;;;;7.62;68.61;99638.44;5030805;28;20080;-38
2021/04/21 03:37:40;;;;;;;30.63;15.23;;;;;;;7.81;68.23;99631.72;5014204;28;20033;-38
2021/04/21 03:40:06;;;;;;;21.23;12.23;;;;;;;7.85;66.41;99634.00;5030811;28;20466;-38
2021/04/21 03:42:33;;;;;;;22.10;12.07;;;;;;;7.92;65.51;99642.81;5032409;28;20461;-38
2021/04/21 03:45:00;;;;;;;21.60;12.20;;;;;;;7.99;64.72;99639.22;5030622;28;20108;-38
2021/04/21 03:47:25;;;;;;;22.60;12.65;;;;;;;8.06;64.77;99644.59;5014322;28;20451;-38
2021/04/21 03:49:50;;;;;;;22.42;12.23;;;;;;;8.07;64.95;99635.63;5030959;28;20026;-38
2021/04/21 03:52:16;;;;;;;20.98;12.38;;;;;;;8.37;64.54;99654.84;5014110;28;20497;-38
2021/04/21 03:54:41;;;;;;;28.63;13.32;;;;;;;8.49;65.01;99647.25;5030013;28;20030;-38
2021/04/21 03:57:08;;;;;;;24.70;13.88;;;;;;;8.77;64.01;99659.69;5030416;28;20029;-38
2021/04/21 03:59:33;;;;;;;24.85;14.60;;;;;;;8.65;65.19;99667.34;5014168;28;20383;-38
2021/04/21 04:01:59;;;;;;;23.45;13.50;;;;;;;8.70;64.95;99664.97;5013477;28;20029;-38
2021/04/21 04:04:25;;;;;;;22.67;13.80;;;;;;;9.30;65.30;99669.81;5029740;28;20037;-38
2021/04/21 04:06:53;;;;;;;24.50;13.43;;;;;;;9.27;64.55;99664.88;5030595;28;20104;-38
2021/04/21 04:09:22;;;;;;;31.10;18.10;;;;;;;9.24;64.84;99666.09;5030027;28;20592;-38
2021/04/21 04:11:50;;;;;;;113.00;50.40;;;;;;;9.43;64.54;99661.09;5025344;28;20029;-38
2021/04/21 04:14:29;;;;;;;77.82;37.25;;;;;;;9.56;63.35;99661.94;5028387;28;20967;-38
2021/04/21 04:16:55;;;;;;;28.42;14.15;;;;;;;9.62;63.11;99667.50;5030950;28;20036;-38
2021/04/21 04:19:21;;;;;;;38.28;14.90;;;;;;;9.83;64.66;99667.34;5030723;28;20036;-38
2021/04/21 04:22:06;;;;;;;27.15;14.00;;;;;;;10.26;63.53;99668.84;5030983;28;20021;-38
2021/04/21 04:24:37;;;;;;;23.05;12.90;;;;;;;10.60;62.25;99675.84;5030944;28;20040;-38
2021/04/21 04:27:04;;;;;;;21.63;12.18;;;;;;;11.14;58.34;99682.75;5029562;28;20021;-38
2021/04/21 04:29:29;;;;;;;17.40;11.65;;;;;;;11.48;57.56;99677.31;5001890;28;20038;-38
2021/04/21 04:31:55;;;;;;;17.05;10.85;;;;;;;11.81;56.17;99685.19;4993627;28;20033;-38
2021/04/21 04:34:21;;;;;;;17.67;10.48;;;;;;;11.98;55.38;99690.06;5026590;28;20031;-37
2021/04/21 04:36:46;;;;;;;15.02;10.80;;;;;;;12.09;54.86;99682.19;5029406;28;20021;-39
2021/04/21 04:39:11;;;;;;;15.27;9.93;;;;;;;12.32;54.30;99700.31;5029272;28;20029;-38
2021/04/21 04:41:37;;;;;;;14.15;9.77;;;;;;;12.55;53.39;99692.75;5030617;28;20108;-38
2021/04/21 04:44:03;;;;;;;16.58;9.90;;;;;;;12.56;52.33;99692.53;5030435;28;20102;-38
2021/04/21 04:46:30;;;;;;;17.88;10.45;;;;;;;13.06;52.22;99705.88;5028860;28;20096;-38
2021/04/21 04:49:07;;;;;;;15.35;9.85;;;;;;;13.90;49.60;99702.69;5030153;28;20331;-37
2021/04/21 04:51:34;;;;;;;17.13;10.18;;;;;;;14.06;49.12;99707.38;5028829;28;20061;-38
2021/04/21 04:54:01;;;;;;;15.25;10.43;;;;;;;14.08;49.11;99701.81;5029899;28;20025;-38
2021/04/21 04:56:26;;;;;;;16.05;10.27;;;;;;;14.10;48.06;99707.75;5030089;28;20454;-38
2021/04/21 04:58:52;;;;;;;17.58;10.45;;;;;;;14.14;48.06;99710.78;5028271;28;20037;-38
2021/04/21 05:01:17;;;;;;;14.82;9.90;;;;;;;14.39;49.03;99718.66;5012189;28;20397;-38
2021/04/21 05:03:50;;;;;;;26.85;16.25;;;;;;;14.65;47.91;99714.78;5030034;28;20052;-37
2021/04/21 05:06:17;;;;;;;21.35;15.05;;;;;;;14.83;47.05;99712.00;5030206;28;20025;-37
2021/04/21 05:08:46;;;;;;;24.50;14.27;;;;;;;15.95;45.81;99718.13;5030052;28;20021;-38
2021/04/21 05:11:13;;;;;;;18.67;10.07;;;;;;;15.52;45.44;99719.41;5028831;28;20053;-38
2021/04/21 05:13:45;;;;;;;17.88;10.15;;;;;;;15.21;45.77;99717.94;5029901;28;20044;-39
2021/04/21 05:16:11;;;;;;;16.35;10.23;;;;;;;15.05;47.26;99719.47;5030401;28;20389;-39
2021/04/21 05:19:06;;;;;;;14.57;10.00;;;;;;;15.98;46.62;99720.34;5020533;28;20136;-39
2021/04/21 05:21:41;;;;;;;16.60;10.07;;;;;;;16.92;43.88;99728.97;5023174;28;20100;-39
2021/04/21 05:24:21;;;;;;;17.48;10.68;;;;;;;18.12;41.27;99723.78;5030828;28;20040;-38
2021/04/21 05:27:05;;;;;;;;;;;;;;;18.94;39.72;99723.72;5031208;28;20087;-38
2021/04/21 05:30:14;;;;;;;13.35;8.65;;;;;;;19.53;37.75;99725.41;5030945;28;19945;-38
2021/04/21 05:33:18;;;;;;;13.43;8.57;;;;;;;20.26;37.41;99732.69;5019975;28;20433;-39
2021/04/21 05:36:12;;;;;;;13.77;8.35;;;;;;;19.59;36.35;99732.47;5028973;28;20087;-40
2021/04/21 05:38:55;;;;;;;13.55;7.65;;;;;;;20.41;35.72;99735.41;5030454;28;20027;-39
2021/04/21 05:41:45;;;;;;;10.43;7.45;;;;;;;20.55;35.80;99733.00;5030605;28;20048;-39
2021/04/21 05:44:55;;;;;;;11.35;7.90;;;;;;;21.46;34.36;99728.59;5030101;28;20525;-39
2021/04/21 05:47:23;;;;;;;10.07;7.47;;;;;;;22.24;33.00;99740.69;5022318;28;20382;-39
2021/04/21 05:50:07;;;;;;;10.38;7.65;;;;;;;22.14;32.25;99738.03;5030015;28;20040;-39
2021/04/21 05:52:33;;;;;;;12.30;7.80;;;;;;;22.38;32.57;99738.16;5030366;28;20506;-39
2021/04/21 05:55:14;;;;;;;13.05;7.57;;;;;;;22.62;31.91;99745.59;5029966;28;20033;-40
2021/04/21 05:58:04;;;;;;;11.43;7.55;;;;;;;22.91;31.55;99745.63;5028540;28;20048;-39
2021/04/21 06:01:03;;;;;;;11.45;7.00;;;;;;;22.85;32.26;99746.75;5028718;28;20040;-40
2021/04/21 06:03:29;;;;;;;10.18;7.15;;;;;;;23.08;30.80;99744.41;5029732;28;20029;-38
2021/04/21 06:06:02;;;;;;;10.70;6.55;;;;;;;22.90;30.99;99749.41;5012192;28;20492;-39
2021/04/21 06:08:28;;;;;;;10.43;6.65;;;;;;;22.16;31.52;99740.44;5030515;28;20029;-38
2021/04/21 06:10:54;;;;;;;8.85;6.50;;;;;;;21.42;32.48;99751.06;5030012;28;20065;-38
2021/04/21 06:13:25;;;;;;;8.93;6.13;;;;;;;21.02;33.71;99745.44;5030061;28;20030;-38
2021/04/21 06:15:50;;;;;;;8.88;6.28;;;;;;;21.62;32.91;99747.50;5012624;28;20070;-38
2021/04/21 06:18:16;;;;;;;9.57;6.03;;;;;;;22.13;32.28;99749.16;5030040;28;20029;-39
2021/04/21 06:20:43;;;;;;;11.60;6.20;;;;;;;21.85;32.06;99749.53;5012184;28;20029;-39
2021/04/21 06:23:11;;;;;;;9.90;6.10;;;;;;;22.62;31.47;99753.72;5029753;28;20127;-38
2021/04/21 06:25:39;;;;;;;7.82;5.95;;;;;;;22.90;31.28;99743.97;5030165;28;20107;-39
2021/04/21 06:28:12;;;;;;;10.07;6.30;;;;;;;22.61;31.47;99758.31;5029766;28;20087;-39
2021/04/21 06:30:38;;;;;;;11.45;6.10;;;;;;;22.53;31.59;99758.13;5029792;28;20370;-39
2021/04/21 06:33:04;;;;;;;7.43;5.70;;;;;;;23.15;31.25;99758.44;5030161;28;20033;-39
2021/04/21 06:35:30;;;;;;;7.50;5.95;;;;;;;22.90;30.39;99760.25;5029982;28;20167;-39
2021/04/21 06:37:55;;;;;;;10.68;6.03;;;;;;;23.20;30.13;99751.06;5030102;28;20033;-39
2021/04/21 06:40:27;;;;;;;10.05;5.88;;;;;;;23.13;30.29;99757.91;5029908;28;20025;-39
2021/04/21 06:42:54;;;;;;;11.27;7.88;;;;;;;23.66;29.81;99757.88;5011977;28;20029;-39
2021/04/21 06:45:30;;;;;;;9.63;6.10;;;;;;;23.07;30.44;99756.34;5029676;28;20033;-39
2021/04/21 06:47:56;;;;;;;9.73;5.70;;;;;;;23.19;30.96;99752.16;5032675;28;20458;-39
2021/04/21 06:50:34;;;;;;;18.13;8.52;;;;;;;23.30;30.18;99761.00;5033393;28;20036;-39
2021/04/21 06:53:02;;;;;;;6.70;5.78;;;;;;;23.61;30.16;99757.97;5032909;28;20025;-40
2021/04/21 06:55:27;;;;;;;8.60;6.32;;;;;;;24.52;28.84;99766.03;5031624;28;20453;-39
2021/04/21 06:57:53;;;;;;;6.80;5.43;;;;;;;24.85;29.03;99763.31;5033740;28;20049;-39
2021/04/21 07:00:22;;;;;;;7.60;5.03;;;;;;;24.45;29.03;99762.84;5034004;28;20025;-40
2021/04/21 07:03:01;;;;;;;8.82;5.93;;;;;;;24.63;28.80;99760.41;5032517;28;20022;-39
2021/04/21 07:05:42;;;;;;;6.72;5.70;;;;;;;24.45;28.36;99760.13;5033186;28;20057;-39
2021/04/21 07:08:19;;;;;;;6.78;5.50;;;;;;;24.24;28.81;99758.78;5031762;28;20477;-39
2021/04/21 07:10:46;;;;;;;7.85;5.00;;;;;;;23.95;29.53;99757.84;5032723;28;20080;-39
2021/04/21 07:13:50;;;;;;;7.05;4.75;;;;;;;24.72;28.54;99769.53;5032585;28;20037;-39
2021/04/21 07:16:20;;;;;;;17.90;6.57;;;;;;;25.17;28.14;99764.41;5028924;28;20044;-42
2021/04/21 07:18:55;;;;;;;6.53;4.97;;;;;;;25.04;27.67;99765.19;5033434;28;20091;-41
2021/04/21 07:21:20;;;;;;;7.50;5.22;;;;;;;24.98;27.46;99759.81;5032632;28;20442;-39
2021/04/21 07:23:49;;;;;;;8.80;4.53;;;;;;;24.13;28.90;99760.84;5031316;28;20515;-39
2021/04/21 07:26:15;;;;;;;6.45;4.97;;;;;;;23.74;29.13;99751.81;5015153;28;20029;-39
2021/04/21 07:28:40;;;;;;;8.70;4.95;;;;;;;23.74;29.33;99770.00;5014807;28;20366;-39
2021/04/21 07:31:11;;;;;;;8.90;5.22;;;;;;;22.30;31.58;99763.16;5014782;28;20370;-39
2021/04/21 07:33:43;;;;;;;14.20;5.50;;;;;;;22.41;30.65;99764.72;5032230;28;20048;-39
2021/04/21 07:36:13;;;;;;;8.57;4.72;;;;;;;21.98;31.31;99764.38;5032467;28;20442;-40
2021/04/21 07:38:42;;;;;;;6.40;4.70;;;;;;;21.46;31.56;99771.91;5032653;28;20139;-39
2021/04/21 07:41:08;;;;;;;6.32;4.50;;;;;;;20.87;32.44;99775.22;5032393;28;20116;-39
2021/04/21 07:43:46;;;;;;;7.60;4.72;;;;;;;21.62;32.02;99767.25;5032442;28;20220;-39
2021/04/21 07:46:16;;;;;;;7.25;4.63;;;;;;;21.91;31.66;99771.19;5032234;28;20084;-39
2021/04/21 07:48:42;;;;;;;11.40;5.68;;;;;;;21.64;32.85;99761.56;5030843;28;20470;-40
2021/04/21 07:51:19;;;;;;;7.30;4.38;;;;;;;21.67;31.57;99769.13;5032338;28;20099;-40
2021/04/21 07:53:51;;;;;;;8.30;4.75;;;;;;;22.02;32.11;99770.06;5031967;28;20062;-39
2021/04/21 07:56:17;;;;;;;6.60;4.50;;;;;;;22.46;30.81;99769.28;5031840;28;20025;-39
2021/04/21 07:58:43;;;;;;;5.60;4.50;;;;;;;21.85;31.44;99768.50;5031794;28;20111;-39
2021/04/21 08:01:08;;;;;;;6.50;4.20;;;;;;;22.36;30.55;99769.38;5032003;28;20037;-39
2021/04/21 08:03:35;;;;;;;11.93;4.18;;;;;;;22.05;31.36;99773.03;5031875;28;20032;-38
2021/04/21 08:06:01;;;;;;;6.57;4.50;;;;;;;22.33;31.03;99769.91;5032034;28;20369;-39
2021/04/21 08:08:30;;;;;;;4.80;3.80;;;;;;;22.27;30.29;99774.56;5031763;28;20029;-39
2021/04/21 08:10:55;;;;;;;7.10;4.03;;;;;;;22.47;30.75;99770.91;5031305;28;20064;-39
2021/04/21 08:13:42;;;;;;;6.53;4.63;;;;;;;22.80;30.66;99769.28;5031723;28;20105;-40
2021/04/21 08:16:23;;;;;;;4.55;4.07;;;;;;;23.10;30.13;99763.94;5031606;28;20032;-40
2021/04/21 08:18:48;;;;;;;7.68;4.28;;;;;;;23.36;29.75;99764.47;5031778;28;20025;-40
2021/04/21 08:21:45;;;;;;;5.05;3.75;;;;;;;24.26;28.71;99754.69;5031692;28;20026;-39
2021/04/21 08:24:15;;;;;;;7.32;4.22;;;;;;;24.43;28.35;99756.88;5031741;28;20122;-39
2021/04/21 08:26:48;;;;;;;5.38;4.40;;;;;;;24.88;27.58;99764.63;5031696;28;20060;-39
2021/04/21 08:29:14;;;;;;;7.90;5.32;;;;;;;25.16;27.62;99758.13;5031412;28;20024;-39
2021/04/21 08:31:45;;;;;;;4.82;4.07;;;;;;;25.13;27.15;99763.34;5031271;28;20021;-39
2021/04/21 08:34:11;;;;;;;6.95;4.70;;;;;;;25.21;27.76;99748.25;5031213;28;20405;-39
2021/04/21 08:36:36;;;;;;;6.78;4.03;;;;;;;25.51;27.49;99753.16;5031585;28;20465;-39
2021/04/21 08:39:02;;;;;;;5.72;3.90;;;;;;;25.21;27.53;99759.13;5031389;28;20037;-39
2021/04/21 08:41:28;;;;;;;4.95;3.88;;;;;;;25.44;27.37;99751.94;5031455;28;20413;-40
2021/04/21 08:43:54;;;;;;;4.95;4.15;;;;;;;25.92;27.63;99752.31;5030078;28;20481;-39
2021/04/21 08:46:20;;;;;;;6.95;4.97;;;;;;;25.44;27.64;99749.22;5030802;28;20059;-39
2021/04/21 08:48:46;;;;;;;6.35;4.10;;;;;;;25.76;27.96;99753.75;5030962;28;20025;-39
2021/04/21 08:51:17;;;;;;;6.28;4.13;;;;;;;26.25;26.57;99746.69;5030974;28;20119;-39
2021/04/21 08:53:46;;;;;;;5.32;3.78;;;;;;;25.67;26.99;99755.56;5030852;28;20048;-39
2021/04/21 08:56:13;;;;;;;6.47;3.65;;;;;;;25.83;26.81;99750.59;5030726;28;20056;-39
2021/04/21 08:58:39;;;;;;;7.18;3.67;;;;;;;26.08;26.54;99747.38;5031048;28;20108;-39
2021/04/21 09:01:04;;;;;;;4.55;3.53;;;;;;;26.34;24.95;99752.22;5030981;28;20021;-39
2021/04/21 09:03:32;;;;;;;6.65;3.78;;;;;;;26.31;25.55;99744.66;5030606;28;20021;-39
2021/04/21 09:05:58;;;;;;;6.25;4.10;;;;;;;26.30;25.69;99743.06;5030897;28;20033;-39
2021/04/21 09:08:24;;;;;;;5.30;3.70;;;;;;;26.51;25.22;99737.91;5030091;28;20322;-39
2021/04/21 09:10:50;;;;;;;4.95;3.97;;;;;;;26.17;24.03;99733.00;5028523;28;20057;-39
2021/04/21 09:13:15;;;;;;;5.78;3.65;;;;;;;25.69;25.45;99734.28;5030307;28;20021;-39
2021/04/21 09:15:42;;;;;;;6.53;3.60;;;;;;;26.21;25.60;99726.59;5030467;28;20025;-39
2021/04/21 09:18:08;;;;;;;10.38;8.13;;;;;;;26.60;25.00;99721.63;5030219;28;20048;-39
2021/04/21 09:20:42;;;;;;;6.03;4.40;;;;;;;27.24;25.23;99726.78;5030388;28;20466;-39
2021/04/21 09:23:13;;;;;;;4.47;3.58;;;;;;;26.14;25.77;99718.88;5029282;28;20089;-39
2021/04/21 09:25:44;;;;;;;4.50;3.80;;;;;;;26.08;25.16;99714.66;5029873;28;20492;-39
2021/04/21 09:28:09;;;;;;;6.97;3.55;;;;;;;25.65;25.47;99701.38;5029773;28;20022;-38
2021/04/21 09:30:36;;;;;;;5.13;3.70;;;;;;;25.96;25.17;99705.38;5030444;28;20545;-39
2021/04/21 09:33:02;;;;;;;6.07;4.10;;;;;;;26.39;24.80;99700.28;5030157;28;20029;-38
2021/04/21 09:35:29;;;;;;;5.32;4.10;;;;;;;26.88;24.81;99703.16;5030068;28;20025;-40
2021/04/21 09:38:06;;;;;;;6.68;4.03;;;;;;;26.65;24.90;99710.59;5030056;28;20374;-38
2021/04/21 09:40:33;;;;;;;5.97;3.60;;;;;;;26.49;24.36;99704.69;5030080;28;20025;-40
2021/04/21 09:42:58;;;;;;;6.57;3.75;;;;;;;26.33;24.31;99696.03;5030210;28;20466;-40
2021/04/21 09:45:40;;;;;;;18.38;14.93;;;;;;;26.40;23.01;99696.44;5018557;28;20045;-38
2021/04/21 09:48:17;;;;;;;5.97;4.78;;;;;;;25.69;23.94;99690.69;5024656;28;20052;-38
2021/04/21 09:50:44;;;;;;;4.55;3.90;;;;;;;24.90;25.62;99702.53;5030409;28;20485;-40
2021/04/21 09:53:23;;;;;;;4.65;3.70;;;;;;;24.93;25.26;99699.22;5030275;28;20029;-40
2021/04/21 09:55:58;;;;;;;6.05;3.88;;;;;;;24.52;25.87;99705.34;5026840;28;20122;-39
2021/04/21 09:58:28;;;;;;;4.68;3.88;;;;;;;23.96;26.88;99696.13;5010331;28;20587;-40
2021/04/21 10:00:54;;;;;;;5.40;4.15;;;;;;;23.41;27.92;99697.34;5010391;28;20030;-38
2021/04/21 10:03:19;;;;;;;6.47;4.25;;;;;;;22.93;28.93;99701.94;5021902;28;20099;-39
2021/04/21 10:05:44;;;;;;;7.03;4.80;;;;;;;22.79;28.79;99699.88;5030021;28;20100;-39
2021/04/21 10:08:14;;;;;;;5.32;4.60;;;;;;;22.02;29.47;99697.72;5029996;28;20445;-39
2021/04/21 10:10:40;;;;;;;8.32;4.70;;;;;;;22.11;29.55;99697.94;5029880;28;20045;-39
2021/04/21 10:13:16;;;;;;;6.35;4.70;;;;;;;21.75;30.39;99692.72;5030229;28;20087;-39
2021/04/21 10:15:41;;;;;;;6.53;4.95;;;;;;;22.13;29.98;99684.91;5029887;28;20028;-39
2021/04/21 10:18:08;;;;;;;7.05;4.55;;;;;;;22.67;29.56;99699.44;5028794;28;20033;-40
2021/04/21 10:20:33;;;;;;;5.38;4.47;;;;;;;22.99;29.07;99671.72;5030047;28;20104;-39
2021/04/21 10:22:59;;;;;;;18.17;12.23;;;;;;;22.10;29.17;99693.59;5016048;28;20030;-38
2021/04/21 10:25:25;;;;;;;23.25;14.82;;;;;;;22.28;28.94;99689.47;5033532;28;20075;-38
2021/04/21 10:27:51;;;;;;;6.75;4.78;;;;;;;22.56;28.09;99678.91;5033649;28;20029;-39
2021/04/21 10:30:16;;;;;;;36.30;20.95;;;;;;;22.74;27.86;99691.78;5032156;28;20032;-39
2021/04/21 10:32:42;;;;;;;3.75;3.00;;;;;;;22.44;26.94;99688.22;5034136;28;20029;-39
2021/04/21 10:35:08;;;;;;;3.22;2.60;;;;;;;22.03;27.16;99691.22;5033654;28;20022;-39
2021/04/21 10:37:34;;;;;;;3.58;2.88;;;;;;;22.26;26.82;99694.34;5032642;28;20394;-39
2021/04/21 10:40:00;;;;;;;3.53;2.80;;;;;;;22.25;27.39;99693.53;5016993;28;20029;-39
2021/04/21 10:42:25;;;;;;;6.20;2.90;;;;;;;22.20;26.84;99690.00;5012647;28;20014;-39
2021/04/21 10:44:52;;;;;;;4.07;2.50;;;;;;;22.34;25.77;99687.53;5012451;28;20111;-39
2021/04/21 10:47:18;;;;;;;3.45;2.30;;;;;;;22.77;25.11;99687.69;5013575;28;20021;-38
2021/04/21 10:50:05;;;;;;;3.30;2.50;;;;;;;22.68;24.80;99684.78;5013094;28;20034;-38
2021/04/21 10:52:31;;;;;;;2.90;2.60;;;;;;;23.28;23.82;99675.53;5012151;28;20033;-39
2021/04/21 10:54:57;;;;;;;3.70;2.60;;;;;;;23.16;24.83;99684.06;5028574;28;20029;-51
2021/04/21 10:57:22;;;;;;;3.28;2.20;;;;;;;23.22;24.00;99680.19;5032677;28;20091;-51
2021/04/21 11:00:10;;;;;;;4.07;2.20;;;;;;;23.68;24.03;99693.19;5032386;28;20037;-49
2021/04/21 11:02:43;;;;;;;3.35;2.40;;;;;;;21.93;28.12;99683.13;5032706;28;20032;-50
2021/04/21 11:05:16;;;;;;;4.50;2.50;;;;;;;21.77;28.07;99679.72;5032661;28;20039;-51
2021/04/21 11:07:44;;;;;;;3.55;2.58;;;;;;;20.80;30.05;99688.13;5032579;28;20108;-50
2021/04/21 11:10:28;;;;;;;3.15;2.35;;;;;;;20.56;30.06;99677.88;5031259;28;20057;-51
2021/04/21 11:12:54;;;;;;;2.28;2.08;;;;;;;20.57;29.28;99678.66;5031137;28;20104;-52
2021/04/21 11:15:37;;;;;;;2.72;2.20;;;;;;;20.91;29.03;99680.81;5032757;28;20032;-52
2021/04/21 11:18:08;;;;;;;4.00;2.40;;;;;;;21.26;28.24;99675.28;5031725;28;20393;-50
2021/04/21 11:20:46;;;;;;;2.67;2.33;;;;;;;21.56;27.99;99673.59;5032636;28;20108;-48
2021/04/21 11:23:50;;;;;;;2.90;2.40;;;;;;;21.85;28.73;99673.72;5032737;28;20089;-48
2021/04/21 11:26:28;;;;;;;4.72;2.50;;;;;;;22.02;28.50;99675.25;5032239;28;20029;-51
2021/04/21 11:28:57;;;;;;;4.03;2.90;;;;;;;22.67;28.14;99680.44;5032147;28;20382;-52
2021/04/21 11:31:43;;;;;;;3.72;3.08;;;;;;;23.58;26.22;99677.06;5031732;28;20021;-52
2021/04/21 11:34:33;;;;;;;6.95;4.07;;;;;;;24.66;24.63;99670.06;5032037;28;20498;-49
2021/04/21 11:37:12;;;;;;;6.72;5.57;;;;;;;24.94;24.95;99666.28;5031917;28;20033;-52
2021/04/21 11:39:40;;;;;;;4.32;3.40;;;;;;;25.65;24.47;99655.06;5032291;28;20438;-51
2021/04/21 11:42:22;;;;;;;3.43;2.23;;;;;;;23.96;27.21;99655.38;5032058;28;20470;-52
2021/04/21 11:44:47;;;;;;;4.85;2.83;;;;;;;23.76;27.20;99648.28;5032330;28;20084;-48
2021/04/21 11:47:31;;;;;;;3.85;2.38;;;;;;;24.43;27.11;99642.66;5032322;28;20163;-50
2021/04/21 11:49:59;;;;;;;4.40;3.10;;;;;;;24.28;26.77;99649.16;5031795;28;20540;-49
2021/04/21 11:52:44;;;;;;;4.05;3.05;;;;;;;25.65;25.86;99644.16;5030778;28;20037;-39